sensor_id;sensor_type;location;lat;lon;timestamp;pressure;altitude;pressure_sealevel;temperature;humidity
50087;BME280;35967;50.718;7.050;2023-03-14T00:08:50;98472.41;;;12.24;72.45
50087;BME280;35967;50.718;7.050;2023-03-14T00:18:55;98488.69;;;12.24;72.96
50087;BME280;35967;50.718;7.050;2023-03-14T00:28:58;98493.69;;;12.27;73.62
50087;BME280;35967;50.718;7.050;2023-03-14T00:39:03;98491.09;;;12.27;73.79
50087;BME280;35967;50.718;7.050;2023-03-14T00:49:06;98471.63;;;12.09;75.40
50087;BME280;35967;50.718;7.050;2023-03-14T00:59:10;98495.19;;;12.17;74.65
50087;BME280;35967;50.718;7.050;2023-03-14T01:09:14;98495.38;;;12.14;74.93
50087;BME280;35967;50.718;7.050;2023-03-14T01:19:20;98490.75;;;12.19;74.13
50087;BME280;35967;50.718;7.050;2023-03-14T01:29:24;98474.16;;;12.23;74.10
50087;BME280;35967;50.718;7.050;2023-03-14T01:39:29;98472.16;;;12.14;73.14
50087;BME280;35967;50.718;7.050;2023-03-14T01:49:34;98465.16;;;12.16;75.28
50087;BME280;35967;50.718;7.050;2023-03-14T01:59:48;98462.34;;;12.06;77.76
50087;BME280;35967;50.718;7.050;2023-03-14T02:09:55;98474.91;;;11.83;80.79
50087;BME280;35967;50.718;7.050;2023-03-14T02:20:26;98454.03;;;11.74;81.91
50087;BME280;35967;50.718;7.050;2023-03-14T02:30:33;98448.81;;;11.61;81.79
50087;BME280;35967;50.718;7.050;2023-03-14T02:40:38;98417.91;;;11.61;80.34
50087;BME280;35967;50.718;7.050;2023-03-14T02:50:45;98394.84;;;11.45;78.76
50087;BME280;35967;50.718;7.050;2023-03-14T03:00:50;98381.22;;;11.43;77.58
50087;BME280;35967;50.718;7.050;2023-03-14T03:10:57;98372.38;;;11.47;77.07
50087;BME280;35967;50.718;7.050;2023-03-14T03:21:04;98380.88;;;11.34;77.33
50087;BME280;35967;50.718;7.050;2023-03-14T03:31:12;98380.06;;;11.34;78.10
50087;BME280;35967;50.718;7.050;2023-03-14T03:41:15;98370.28;;;11.39;78.10
50087;BME280;35967;50.718;7.050;2023-03-14T03:51:20;98358.53;;;11.35;79.08
50087;BME280;35967;50.718;7.050;2023-03-14T04:01:23;98362.69;;;11.23;79.05
50087;BME280;35967;50.718;7.050;2023-03-14T04:11:32;98366.56;;;11.16;79.75
50087;BME280;35967;50.718;7.050;2023-03-14T04:21:39;98366.28;;;11.20;79.71
50087;BME280;35967;50.718;7.050;2023-03-14T04:31:49;98364.00;;;11.16;80.08
50087;BME280;35967;50.718;7.050;2023-03-14T04:41:53;98349.47;;;11.15;84.76
50087;BME280;35967;50.718;7.050;2023-03-14T04:51:58;98346.38;;;10.37;95.96
50087;BME280;35967;50.718;7.050;2023-03-14T05:02:03;98338.47;;;10.55;95.11
50087;BME280;35967;50.718;7.050;2023-03-14T05:12:29;98317.06;;;10.69;92.93
50087;BME280;35967;50.718;7.050;2023-03-14T05:22:46;98286.66;;;10.61;93.35
50087;BME280;35967;50.718;7.050;2023-03-14T05:33:10;98285.66;;;10.64;90.58
50087;BME280;35967;50.718;7.050;2023-03-14T05:43:36;98284.00;;;10.48;89.73
50087;BME280;35967;50.718;7.050;2023-03-14T05:53:50;98299.88;;;10.55;89.92
50087;BME280;35967;50.718;7.050;2023-03-14T06:04:19;98284.28;;;10.58;90.46
50087;BME280;35967;50.718;7.050;2023-03-14T06:14:29;98282.34;;;10.47;93.64
50087;BME280;35967;50.718;7.050;2023-03-14T06:24:33;98269.28;;;10.50;92.49
50087;BME280;35967;50.718;7.050;2023-03-14T06:34:39;98260.00;;;10.62;91.68
50087;BME280;35967;50.718;7.050;2023-03-14T06:44:43;98262.50;;;10.64;89.96
50087;BME280;35967;50.718;7.050;2023-03-14T06:54:50;98274.28;;;10.95;87.74
50087;BME280;35967;50.718;7.050;2023-03-14T07:04:56;98285.94;;;11.56;87.47
50087;BME280;35967;50.718;7.050;2023-03-14T07:15:01;98288.47;;;11.83;85.24
50087;BME280;35967;50.718;7.050;2023-03-14T07:25:20;98299.78;;;11.67;84.78
50087;BME280;35967;50.718;7.050;2023-03-14T07:35:25;98289.72;;;11.90;83.82
50087;BME280;35967;50.718;7.050;2023-03-14T07:45:28;98311.03;;;12.20;82.74
50087;BME280;35967;50.718;7.050;2023-03-14T07:55:33;98320.00;;;12.66;80.63
50087;BME280;35967;50.718;7.050;2023-03-14T08:05:37;98315.28;;;12.97;79.25
50087;BME280;35967;50.718;7.050;2023-03-14T08:15:41;98315.28;;;12.97;78.62
50087;BME280;35967;50.718;7.050;2023-03-14T08:25:44;98324.59;;;12.99;78.44
50087;BME280;35967;50.718;7.050;2023-03-14T08:35:53;98343.94;;;12.81;79.24
50087;BME280;35967;50.718;7.050;2023-03-14T08:45:57;98346.00;;;12.62;79.95
50087;BME280;35967;50.718;7.050;2023-03-14T08:56:05;98343.03;;;12.69;79.65
50087;BME280;35967;50.718;7.050;2023-03-14T09:06:09;98360.06;;;12.71;82.45
50087;BME280;35967;50.718;7.050;2023-03-14T09:16:18;98388.19;;;12.10;89.65
50087;BME280;35967;50.718;7.050;2023-03-14T09:26:22;98394.91;;;12.25;94.76
50087;BME280;35967;50.718;7.050;2023-03-14T09:36:28;98407.94;;;11.96;93.67
50087;BME280;35967;50.718;7.050;2023-03-14T09:46:32;98428.84;;;11.50;96.29
50087;BME280;35967;50.718;7.050;2023-03-14T09:56:38;98550.22;;;10.86;99.60
50087;BME280;35967;50.718;7.050;2023-03-14T10:18:11;98664.81;;;9.44;96.80
50087;BME280;35967;50.718;7.050;2023-03-14T10:28:43;98709.53;;;9.23;99.29
50087;BME280;35967;50.718;7.050;2023-03-14T10:38:48;98752.91;;;9.10;97.23
50087;BME280;35967;50.718;7.050;2023-03-14T10:48:53;98760.81;;;9.05;96.69
50087;BME280;35967;50.718;7.050;2023-03-14T10:58:58;98782.63;;;8.96;94.95
50087;BME280;35967;50.718;7.050;2023-03-14T11:09:06;98818.59;;;8.95;94.65
50087;BME280;35967;50.718;7.050;2023-03-14T11:19:22;98843.44;;;9.13;95.65
50087;BME280;35967;50.718;7.050;2023-03-14T11:29:37;98860.59;;;9.13;94.36
50087;BME280;35967;50.718;7.050;2023-03-14T11:39:51;98876.13;;;9.29;94.35
50087;BME280;35967;50.718;7.050;2023-03-14T11:50:03;98906.16;;;9.46;90.28
50087;BME280;35967;50.718;7.050;2023-03-14T12:00:13;98918.00;;;10.22;86.86
50087;BME280;35967;50.718;7.050;2023-03-14T12:10:18;98957.06;;;9.93;83.32
50087;BME280;35967;50.718;7.050;2023-03-14T12:20:26;99056.00;;;8.62;87.42
50087;BME280;35967;50.718;7.050;2023-03-14T12:30:54;99085.75;;;7.74;91.75
50087;BME280;35967;50.718;7.050;2023-03-14T12:41:03;99114.50;;;7.83;94.82
50087;BME280;35967;50.718;7.050;2023-03-14T12:51:13;99140.72;;;8.37;95.68
50087;BME280;35967;50.718;7.050;2023-03-14T13:01:20;99161.63;;;8.26;95.08
50087;BME280;35967;50.718;7.050;2023-03-14T13:11:25;99180.66;;;8.20;94.19
50087;BME280;35967;50.718;7.050;2023-03-14T13:21:35;99207.09;;;8.21;95.25
50087;BME280;35967;50.718;7.050;2023-03-14T13:31:43;99240.59;;;8.40;94.69
50087;BME280;35967;50.718;7.050;2023-03-14T13:41:48;99269.59;;;8.42;94.16
50087;BME280;35967;50.718;7.050;2023-03-14T13:51:52;99307.41;;;8.37;92.60
50087;BME280;35967;50.718;7.050;2023-03-14T14:01:58;99338.94;;;8.14;91.64
50087;BME280;35967;50.718;7.050;2023-03-14T14:12:05;99369.88;;;7.81;92.28
50087;BME280;35967;50.718;7.050;2023-03-14T14:22:19;99420.88;;;7.32;93.02
50087;BME280;35967;50.718;7.050;2023-03-14T14:32:23;99452.28;;;7.05;93.41
50087;BME280;35967;50.718;7.050;2023-03-14T14:42:30;99481.22;;;6.76;91.85
50087;BME280;35967;50.718;7.050;2023-03-14T14:52:39;99502.91;;;6.94;92.84
50087;BME280;35967;50.718;7.050;2023-03-14T15:02:47;99535.75;;;6.76;91.96
50087;BME280;35967;50.718;7.050;2023-03-14T15:12:52;99565.13;;;6.96;92.88
50087;BME280;35967;50.718;7.050;2023-03-14T15:22:57;99585.97;;;6.79;92.91
50087;BME280;35967;50.718;7.050;2023-03-14T15:33:00;99605.13;;;6.62;93.77
50087;BME280;35967;50.718;7.050;2023-03-14T15:43:05;99626.19;;;6.74;93.97
50087;BME280;35967;50.718;7.050;2023-03-14T15:53:09;99635.44;;;6.40;93.71
50087;BME280;35967;50.718;7.050;2023-03-14T16:03:13;99654.72;;;6.55;92.02
50087;BME280;35967;50.718;7.050;2023-03-14T16:13:16;99675.94;;;6.59;92.59
50087;BME280;35967;50.718;7.050;2023-03-14T16:23:47;99686.84;;;6.67;92.26
50087;BME280;35967;50.718;7.050;2023-03-14T16:33:54;99703.78;;;6.30;92.23
50087;BME280;35967;50.718;7.050;2023-03-14T16:43:59;99722.44;;;6.34;92.24
50087;BME280;35967;50.718;7.050;2023-03-14T16:54:03;99752.50;;;6.21;92.96
50087;BME280;35967;50.718;7.050;2023-03-14T17:04:08;99770.22;;;7.15;91.62
50087;BME280;35967;50.718;7.050;2023-03-14T17:14:12;99796.91;;;6.17;93.25
50087;BME280;35967;50.718;7.050;2023-03-14T17:24:17;99822.06;;;6.39;92.35
50087;BME280;35967;50.718;7.050;2023-03-14T17:34:20;99848.53;;;6.36;90.62
50087;BME280;35967;50.718;7.050;2023-03-14T17:44:24;99883.44;;;6.37;89.71
50087;BME280;35967;50.718;7.050;2023-03-14T17:54:30;99918.97;;;6.53;89.83
50087;BME280;35967;50.718;7.050;2023-03-14T18:04:35;99934.22;;;6.57;88.47
50087;BME280;35967;50.718;7.050;2023-03-14T18:14:38;99975.31;;;6.45;88.53
50087;BME280;35967;50.718;7.050;2023-03-14T18:25:08;99996.47;;;6.00;86.47
50087;BME280;35967;50.718;7.050;2023-03-14T18:35:12;100016.25;;;5.81;84.74
50087;BME280;35967;50.718;7.050;2023-03-14T18:45:17;100039.38;;;5.72;84.10
50087;BME280;35967;50.718;7.050;2023-03-14T18:55:20;100058.84;;;5.80;81.31
50087;BME280;35967;50.718;7.050;2023-03-14T19:05:25;100079.00;;;6.05;79.78
50087;BME280;35967;50.718;7.050;2023-03-14T19:15:28;100099.56;;;5.93;71.21
50087;BME280;35967;50.718;7.050;2023-03-14T19:25:32;100117.38;;;6.00;71.12
50087;BME280;35967;50.718;7.050;2023-03-14T19:35:36;100123.47;;;5.85;69.25
50087;BME280;35967;50.718;7.050;2023-03-14T19:45:42;100151.50;;;5.90;68.11
50087;BME280;35967;50.718;7.050;2023-03-14T19:55:45;100178.00;;;5.81;68.25
50087;BME280;35967;50.718;7.050;2023-03-14T20:05:51;100211.41;;;5.58;68.13
50087;BME280;35967;50.718;7.050;2023-03-14T20:15:54;100225.03;;;5.60;65.63
50087;BME280;35967;50.718;7.050;2023-03-14T20:25:59;100246.34;;;5.56;64.90
50087;BME280;35967;50.718;7.050;2023-03-14T20:36:05;100254.63;;;5.81;69.76
50087;BME280;35967;50.718;7.050;2023-03-14T20:46:10;100274.44;;;5.55;65.51
50087;BME280;35967;50.718;7.050;2023-03-14T20:56:14;100291.59;;;5.31;64.94
50087;BME280;35967;50.718;7.050;2023-03-14T21:06:18;100300.06;;;5.41;66.72
50087;BME280;35967;50.718;7.050;2023-03-14T21:16:22;100308.69;;;5.24;66.41
50087;BME280;35967;50.718;7.050;2023-03-14T21:26:27;100330.94;;;4.88;68.64
50087;BME280;35967;50.718;7.050;2023-03-14T21:36:30;100346.34;;;4.54;71.65
50087;BME280;35967;50.718;7.050;2023-03-14T21:46:34;100360.81;;;4.47;74.10
50087;BME280;35967;50.718;7.050;2023-03-14T21:56:38;100359.09;;;4.49;74.86
50087;BME280;35967;50.718;7.050;2023-03-14T22:06:43;100374.44;;;4.35;76.19
50087;BME280;35967;50.718;7.050;2023-03-14T22:16:47;100384.63;;;4.20;77.23
50087;BME280;35967;50.718;7.050;2023-03-14T22:26:52;100398.19;;;3.82;79.16
50087;BME280;35967;50.718;7.050;2023-03-14T22:36:55;100395.69;;;4.14;78.49
50087;BME280;35967;50.718;7.050;2023-03-14T22:47:01;100403.28;;;3.78;78.97
50087;BME280;35967;50.718;7.050;2023-03-14T22:57:05;100397.34;;;3.79;78.29
50087;BME280;35967;50.718;7.050;2023-03-14T23:07:09;100404.16;;;3.99;76.19
50087;BME280;35967;50.718;7.050;2023-03-14T23:17:12;100416.00;;;3.82;76.26
50087;BME280;35967;50.718;7.050;2023-03-14T23:27:17;100432.97;;;3.64;76.27
50087;BME280;35967;50.718;7.050;2023-03-14T23:37:20;100429.59;;;3.77;76.29
50087;BME280;35967;50.718;7.050;2023-03-14T23:47:25;100436.38;;;3.78;76.06
50087;BME280;35967;50.718;7.050;2023-03-14T23:57:29;100452.44;;;3.56;76.86
